Terminal Aerodrome Forecast
Issued by NWS Cleveland, OH

Home | Current Version | Previous Version | Text Only | Print | Product List | Glossary Off
Versions: 1 2 3 4 5 6 7 8 9 10 11 12 13 14 15 16 17 18 19

000
FTUS41 KCLE 140500
TAFCAK
TAF
KCAK 140531Z 1406/1506 VRB03KT P6SM SCT035
     FM141000 00000KT 3SM BR FEW045
     FM141400 15005KT P6SM SCT040=

USA.gov is the U.S. government's official web portal to all federal, state and local government web resources and services.